Time;durP1;ratioP1;P1;durP2;ratioP2;P2;SDS_P1;SDS_P2;PMS_P1;PMS_P2;Temp;Humidity;BMP_temperature;BMP_pressure;BME280_temperature;BME280_humidity;BME280_pressure;Samples;Min_cycle;Max_cycle;Signal;HPM_P1;HPM_P2
2023/02/23 01:37:42;;;;;;;;;;;;;;;;;;6285116;22;19923;-93
2023/02/23 01:43:10;;;;;;;;;;;;;;;;;;6276097;22;19915;-96
2023/02/23 01:45:39;;;;;;;;;;;;;;;;;;6227138;22;20063;-95
2023/02/23 01:48:15;;;;;;;;;;;;;;;;;;6252339;22;20295;-96
2023/02/23 01:56:27;;;;;;;;;;;;;;;;;;6262790;22;19915;-96
2023/02/23 02:04:58;;;;;;;;;;;;;;;;;;6241647;22;19930;-96
2023/02/23 02:17:03;;;;;;;;;;;;;;;;;;;;;
2023/02/23 04:24:16;;;;;;;;;;;;;;;;;;;;;
2023/02/23 04:26:42;;;;;;;;;;;;;;;;;;6242219;23;19916;-94
2023/02/23 04:32:09;;;;;;;;;;;;;;;;;;6212024;23;19919;-95
2023/02/23 04:34:42;;;;;;;;;;;;;;;;;;6222601;23;19990;-96
2023/02/23 04:37:19;;;;;;;;;;;;;;;;;;6223383;23;19922;-94
2023/02/23 04:39:58;;;;;;;;;;;;;;;;;;;;;
2023/02/23 04:42:31;;;;;;;;;;;;;;;;;;6249755;23;19922;-94
2023/02/23 04:45:07;;;;;;;;;;;;;;;;;;6197872;23;19916;-92
2023/02/23 04:47:36;;;;;;;;;;;;;;;;;;6198617;23;19915;-93
2023/02/23 04:53:12;;;;;;;;;;;;;;;;;;6208568;23;19919;-94
2023/02/23 04:55:37;;;;;;;;;;;;;;;;;;6222836;23;20301;-93
2023/02/23 05:52:21;;;;;;;;;;;;;;;;;;6253771;22;20002;-94
2023/02/23 05:54:54;;;;;;;;;;;;;;;;;;6222150;23;19922;-94
2023/02/23 05:57:30;;;;;;;;;;;;;;;;;;;;;
2023/02/23 06:00:14;;;;;;;;;;;;;;;;;;6248674;23;19954;-96
2023/02/23 06:02:56;;;;;;;;;;;;;;;;;;;;;
2023/02/23 06:05:33;;;;;;;;;;;;;;;;;;;;;
2023/02/23 06:13:48;;;;;;;;;;;;;;;;;;6223203;23;19926;-94
2023/02/23 06:19:03;;;;;;;;;;;;;;;;;;6234721;23;19916;-95
2023/02/23 06:21:40;;;;;;;;;;;;;;;;;;6197126;23;19916;-93
2023/02/23 06:24:09;;;;;;;;;;;;;;;;;;6221926;23;19938;-94
2023/02/23 06:26:37;;;;;;;;;;;;;;;;;;6248349;23;19987;-94
2023/02/23 06:29:11;;;;;;;;;;;;;;;;;;6221771;23;19916;-95
2023/02/23 06:31:49;;;;;;;;;;;;;;;;;;6221581;23;19964;-95
2023/02/23 06:34:17;;;;;;;;;;;;;;;;;;6221540;23;19939;-92
2023/02/23 06:39:30;;;;;;;;;;;;;;;;;;6200977;23;19915;-96
2023/02/23 06:42:10;;;;;;;;;;;;;;;;;;6222518;23;19915;-90
2023/02/23 06:44:42;;;;;;;;;;;;;;;;;;6219642;23;19915;-92
2023/02/23 06:47:19;;;;;;;;;;;;;;;;;;;;;
2023/02/23 06:50:00;;;;;;;;;;;;;;;;;;;;;
2023/02/23 06:58:37;;;;;;;;;;;;;;;;;;;;;
2023/02/23 07:03:57;;;;;;;;;;;;;;;;;;6203413;23;19915;-95
2023/02/23 07:09:18;;;;;;;;;;;;;;;;;;6218564;22;19927;-94
2023/02/23 08:15:19;;;;;;;;;;;;;;;;;;;;;
2023/02/23 08:20:59;;;;;;;;;;;;;;;;;;6213722;23;19902;-94
2023/02/23 08:23:25;;;;;;;;;;;;;;;;;;6222544;23;20401;-94
2023/02/23 08:25:52;;;;;;;;;;;;;;;;;;6222672;23;19916;-94
2023/02/23 08:28:26;;;;;;;;;;;;;;;;;;6224532;23;19926;-93
2023/02/23 08:30:52;;;;;;;;;;;;;;;;;;6196673;23;19951;-93
2023/02/23 08:33:18;;;;;;;;;;;;;;;;;;6195436;23;19959;-94
2023/02/23 08:35:44;;;;;;;;;;;;;;;;;;6221019;23;19965;-94
2023/02/23 08:38:10;;;;;;;;;;;;;;;;;;6195456;23;20095;-94
2023/02/23 08:40:36;;;;;;;;;;;;;;;;;;6195297;23;19916;-93
2023/02/23 08:43:01;;;;;;;;;;;;;;;;;;6220980;23;19920;-94
2023/02/23 08:45:28;;;;;;;;;;;;;;;;;;6195151;23;20351;-94
2023/02/23 08:47:54;;;;;;;;;;;;;;;;;;6195452;23;20039;-95
2023/02/23 08:50:24;;;;;;;;;;;;;;;;;;6196283;23;19916;-95
2023/02/23 08:52:50;;;;;;;;;;;;;;;;;;6222170;23;19919;-94
2023/02/23 08:55:17;;;;;;;;;;;;;;;;;;6197622;23;20253;-95
2023/02/23 08:57:43;;;;;;;;;;;;;;;;;;6197230;23;19980;-95
2023/02/23 09:00:15;;;;;;;;;;;;;;;;;;6196863;23;19970;-94
2023/02/23 09:02:41;;;;;;;;;;;;;;;;;;6222342;23;19955;-94
2023/02/23 09:05:07;;;;;;;;;;;;;;;;;;6223239;23;19920;-95
2023/02/23 09:07:33;;;;;;;;;;;;;;;;;;6197467;23;19926;-94
2023/02/23 09:10:00;;;;;;;;;;;;;;;;;;6221430;23;20076;-93
2023/02/23 09:12:26;;;;;;;;;;;;;;;;;;6221744;23;20067;-94
2023/02/23 09:14:52;;;;;;;;;;;;;;;;;;6222237;23;19919;-94
2023/02/23 09:17:18;;;;;;;;;;;;;;;;;;6220738;23;19920;-93
2023/02/23 09:19:44;;;;;;;;;;;;;;;;;;6221579;23;19916;-93
2023/02/23 09:22:10;;;;;;;;;;;;;;;;;;6199557;23;20037;-93
2023/02/23 09:24:37;;;;;;;;;;;;;;;;;;6196133;23;19915;-94
2023/02/23 09:27:03;;;;;;;;;;;;;;;;;;6220955;23;20329;-93
2023/02/23 09:29:29;;;;;;;;;;;;;;;;;;6196088;23;19915;-94
2023/02/23 09:31:56;;;;;;;;;;;;;;;;;;6221317;23;19920;-94
2023/02/23 09:34:22;;;;;;;;;;;;;;;;;;6195729;23;19990;-94
2023/02/23 09:36:48;;;;;;;;;;;;;;;;;;6221641;23;19965;-95
2023/02/23 09:39:14;;;;;;;;;;;;;;;;;;6221034;23;20331;-92
2023/02/23 09:41:40;;;;;;;;;;;;;;;;;;6222755;23;19916;-92
2023/02/23 09:44:06;;;;;;;;;;;;;;;;;;6221810;23;19915;-92
2023/02/23 09:46:32;;;;;;;;;;;;;;;;;;6222010;23;19949;-93
2023/02/23 09:48:58;;;;;;;;;;;;;;;;;;6221507;23;19916;-95
2023/02/23 09:51:24;;;;;;;;;;;;;;;;;;6196194;23;19961;-93
2023/02/23 09:53:50;;;;;;;;;;;;;;;;;;6196245;23;19938;-93
2023/02/23 09:56:16;;;;;;;;;;;;;;;;;;6196310;23;19916;-93
2023/02/23 09:58:42;;;;;;;;;;;;;;;;;;6196121;23;19926;-94
2023/02/23 10:01:08;;;;;;;;;;;;;;;;;;6195728;23;20242;-93
2023/02/23 10:03:34;;;;;;;;;;;;;;;;;;6196412;23;19920;-93
2023/02/23 10:06:00;;;;;;;;;;;;;;;;;;6248347;23;19927;-94
2023/02/23 10:08:26;;;;;;;;;;;;;;;;;;6196656;23;19926;-92
2023/02/23 10:10:52;;;;;;;;;;;;;;;;;;6197596;23;19959;-93
2023/02/23 10:13:19;;;;;;;;;;;;;;;;;;6248033;23;19927;-92
2023/02/23 10:15:45;;;;;;;;;;;;;;;;;;6220923;23;19938;-93
2023/02/23 10:18:11;;;;;;;;;;;;;;;;;;6195425;23;20325;-93
2023/02/23 10:20:37;;;;;;;;;;;;;;;;;;6221010;23;19922;-92
2023/02/23 10:23:03;;;;;;;;;;;;;;;;;;6195284;23;19981;-91
2023/02/23 10:25:29;;;;;;;;;;;;;;;;;;6195214;23;19942;-93
2023/02/23 10:27:55;;;;;;;;;;;;;;;;;;6247829;23;19986;-94
2023/02/23 10:30:21;;;;;;;;;;;;;;;;;;6247245;23;19915;-91
2023/02/23 10:32:47;;;;;;;;;;;;;;;;;;6194703;23;19926;-92
2023/02/23 10:35:13;;;;;;;;;;;;;;;;;;6195733;23;19916;-91
2023/02/23 10:37:38;;;;;;;;;;;;;;;;;;6220946;23;19987;-95
2023/02/23 10:40:06;;;;;;;;;;;;;;;;;;6195294;23;19934;-93
2023/02/23 10:42:32;;;;;;;;;;;;;;;;;;6196297;23;19994;-94
2023/02/23 10:44:58;;;;;;;;;;;;;;;;;;6196101;23;20355;-94
2023/02/23 10:47:24;;;;;;;;;;;;;;;;;;6195983;23;20317;-94
2023/02/23 10:49:49;;;;;;;;;;;;;;;;;;6220909;23;20365;-93
2023/02/23 10:52:15;;;;;;;;;;;;;;;;;;6195575;23;19923;-94
2023/02/23 10:54:46;;;;;;;;;;;;;;;;;;6196187;23;20387;-92
2023/02/23 10:57:13;;;;;;;;;;;;;;;;;;6221288;23;19919;-94
2023/02/23 10:59:39;;;;;;;;;;;;;;;;;;6220953;23;19915;-93
2023/02/23 11:02:04;;;;;;;;;;;;;;;;;;6195938;23;20007;-95
2023/02/23 11:04:30;;;;;;;;;;;;;;;;;;6196089;23;19922;-93
2023/02/23 11:06:56;;;;;;;;;;;;;;;;;;6195838;23;19939;-93
2023/02/23 11:09:23;;;;;;;;;;;;;;;;;;6220492;22;19916;-93
2023/02/23 11:11:49;;;;;;;;;;;;;;;;;;6195307;23;19920;-93
2023/02/23 11:14:15;;;;;;;;;;;;;;;;;;6220388;23;19938;-93
2023/02/23 11:16:41;;;;;;;;;;;;;;;;;;6220841;23;20383;-93
2023/02/23 11:19:08;;;;;;;;;;;;;;;;;;6195455;23;19951;-93
2023/02/23 11:21:34;;;;;;;;;;;;;;;;;;6194108;22;19923;-94
2023/02/23 11:24:03;;;;;;;;;;;;;;;;;;6278961;22;19915;-94
2023/02/23 11:26:45;;;;;;;;;;;;;;;;;;6278075;22;19938;-94
2023/02/23 11:29:59;;;;;;;;;;;;;;;;;;6252792;22;19973;-95
2023/02/23 11:32:12;;;;;;;;;;;;;;;;;;6268253;22;20439;-92
2023/02/23 11:34:42;;;;;;;;;;;;;;;;;;6276114;22;20249;-92
2023/02/23 11:37:08;;;;;;;;;;;;;;;;;;6275132;22;19916;-92
2023/02/23 11:39:37;;;;;;;;;;;;;;;;;;6251213;22;19915;-92
2023/02/23 11:42:03;;;;;;;;;;;;;;;;;;6250533;22;19941;-92
2023/02/23 11:44:29;;;;;;;;;;;;;;;;;;6275888;22;19922;-91
2023/02/23 11:46:55;;;;;;;;;;;;;;;;;;6275573;22;20394;-92
2023/02/23 11:55:09;;;;;;;;;;;;;;;;;;6312688;22;19913;-96
2023/02/23 12:00:10;;;;;;;;;;;;;;;;;;6258040;23;19920;-92
2023/02/23 12:02:47;;;;;;;;;;;;;;;;;;;;;
2023/02/23 12:05:29;;;;;;;;;;;;;;;;;;;;;
2023/02/23 12:10:45;;;;;;;;;;;;;;;;;;6210851;23;19915;-95
2023/02/23 12:13:31;;;;;;;;;;;;;;;;;;;;;
2023/02/23 13:01:26;;;;;;;;;;;;;;;;;;6046006;23;19921;-96
2023/02/23 13:06:55;;;;;;;;;;;;;;;;;;6157908;23;20195;-95
2023/02/23 13:09:30;;;;;;;;;;;;;;;;;;6107833;23;20249;-94
2023/02/23 13:12:15;;;;;;;;;;;;;;;;;;;;;
2023/02/23 13:14:53;;;;;;;;;;;;;;;;;;;;;
2023/02/23 13:17:23;;;;;;;;;;;;;;;;;;6156843;23;19940;-95
2023/02/23 13:20:05;;;;;;;;;;;;;;;;;;6132234;23;19948;-95
2023/02/23 13:22:32;;;;;;;;;;;;;;;;;;6113771;23;19948;-96
2023/02/23 13:25:01;;;;;;;;;;;;;;;;;;6136602;23;20161;-96
2023/02/23 13:27:30;;;;;;;;;;;;;;;;;;6132827;23;20031;-96
2023/02/23 13:39:26;;;;;;;;;;;;;;;;;;6284554;22;19915;-94
2023/02/23 13:41:38;;;;;;;;;;;;;;;;;;6266764;22;19921;-93
2023/02/23 13:44:04;;;;;;;;;;;;;;;;;;6251852;22;19982;-93
2023/02/23 13:46:30;;;;;;;;;;;;;;;;;;6251904;22;19915;-92
2023/02/23 13:48:56;;;;;;;;;;;;;;;;;;6277394;22;19915;-94
2023/02/23 13:51:25;;;;;;;;;;;;;;;;;;6277311;22;19926;-94
2023/02/23 13:53:54;;;;;;;;;;;;;;;;;;6277466;22;19990;-94
2023/02/23 13:56:20;;;;;;;;;;;;;;;;;;6252353;22;19955;-93
2023/02/23 13:58:46;;;;;;;;;;;;;;;;;;6278662;22;19915;-93
2023/02/23 14:01:12;;;;;;;;;;;;;;;;;;6252413;22;19919;-95
2023/02/23 14:03:38;;;;;;;;;;;;;;;;;;6252257;22;20001;-94
2023/02/23 14:06:11;;;;;;;;;;;;;;;;;;6278334;22;20350;-95
2023/02/23 14:08:40;;;;;;;;;;;;;;;;;;6251681;22;19915;-95
2023/02/23 14:11:06;;;;;;;;;;;;;;;;;;6278163;22;19916;-92
2023/02/23 14:13:32;;;;;;;;;;;;;;;;;;6278409;22;20352;-94
2023/02/23 14:15:58;;;;;;;;;;;;;;;;;;6251889;22;20022;-96
2023/02/23 14:18:24;;;;;;;;;;;;;;;;;;6251273;22;19915;-95
2023/02/23 14:20:50;;;;;;;;;;;;;;;;;;6252814;22;19943;-93
2023/02/23 14:23:16;;;;;;;;;;;;;;;;;;6252531;22;19915;-94
2023/02/23 14:25:42;;;;;;;;;;;;;;;;;;6277831;22;19919;-94
2023/02/23 14:28:08;;;;;;;;;;;;;;;;;;6278854;22;19915;-92
2023/02/23 14:30:34;;;;;;;;;;;;;;;;;;6251511;22;19951;-93
2023/02/23 14:33:01;;;;;;;;;;;;;;;;;;6277107;22;19927;-92
2023/02/23 14:35:26;;;;;;;;;;;;;;;;;;6251738;22;19957;-93
2023/02/23 14:37:52;;;;;;;;;;;;;;;;;;6277180;22;19919;-93
2023/02/23 14:40:19;;;;;;;;;;;;;;;;;;6250386;22;20341;-94
2023/02/23 14:42:45;;;;;;;;;;;;;;;;;;6275721;22;19915;-92
2023/02/23 14:45:11;;;;;;;;;;;;;;;;;;6277882;22;19965;-92
2023/02/23 14:47:37;;;;;;;;;;;;;;;;;;6251433;22;19954;-92
2023/02/23 14:50:03;;;;;;;;;;;;;;;;;;6278569;22;19915;-92
2023/02/23 14:52:29;;;;;;;;;;;;;;;;;;6276138;22;19990;-92
2023/02/23 14:54:55;;;;;;;;;;;;;;;;;;6275737;22;20218;-92
2023/02/23 14:57:21;;;;;;;;;;;;;;;;;;6249743;22;19915;-92
2023/02/23 14:59:47;;;;;;;;;;;;;;;;;;6275794;22;19915;-92
2023/02/23 15:02:13;;;;;;;;;;;;;;;;;;6276141;22;20333;-91
2023/02/23 15:04:40;;;;;;;;;;;;;;;;;;6250287;22;19966;-91
2023/02/23 15:07:06;;;;;;;;;;;;;;;;;;6249955;22;19915;-92
2023/02/23 15:09:32;;;;;;;;;;;;;;;;;;6250039;22;19926;-93
2023/02/23 15:11:58;;;;;;;;;;;;;;;;;;6249486;22;20387;-93
2023/02/23 15:14:24;;;;;;;;;;;;;;;;;;6250237;22;19922;-93
2023/02/23 15:16:50;;;;;;;;;;;;;;;;;;6249964;22;19915;-93
2023/02/23 15:19:16;;;;;;;;;;;;;;;;;;6249752;22;19915;-92
2023/02/23 15:21:42;;;;;;;;;;;;;;;;;;6276800;22;19915;-93
2023/02/23 15:24:09;;;;;;;;;;;;;;;;;;6249492;22;19938;-91
2023/02/23 15:26:35;;;;;;;;;;;;;;;;;;6249056;22;19994;-90
2023/02/23 15:29:03;;;;;;;;;;;;;;;;;;6249871;22;19927;-92
2023/02/23 15:31:50;;;;;;;;;;;;;;;;;;6275966;22;19915;-95
2023/02/23 15:34:18;;;;;;;;;;;;;;;;;;6274318;22;19990;-90
2023/02/23 15:36:45;;;;;;;;;;;;;;;;;;6248985;22;20314;-91
2023/02/23 15:39:11;;;;;;;;;;;;;;;;;;6249320;22;19916;-90
2023/02/23 15:41:38;;;;;;;;;;;;;;;;;;6249225;22;19916;-90
2023/02/23 15:44:04;;;;;;;;;;;;;;;;;;6274742;22;20406;-89
2023/02/23 15:46:31;;;;;;;;;;;;;;;;;;6249086;22;19915;-93
2023/02/23 15:48:57;;;;;;;;;;;;;;;;;;6250193;22;19915;-94
2023/02/23 15:51:25;;;;;;;;;;;;;;;;;;6250323;22;20571;-94
2023/02/23 15:53:52;;;;;;;;;;;;;;;;;;6276345;22;19921;-91
2023/02/23 15:56:18;;;;;;;;;;;;;;;;;;6250369;22;19919;-94
2023/02/23 15:58:44;;;;;;;;;;;;;;;;;;6249974;22;19915;-91
2023/02/23 16:01:10;;;;;;;;;;;;;;;;;;6249867;22;19922;-91
2023/02/23 16:03:36;;;;;;;;;;;;;;;;;;6275937;22;19934;-93
2023/02/23 16:06:02;;;;;;;;;;;;;;;;;;6251135;22;19954;-93
2023/02/23 16:08:28;;;;;;;;;;;;;;;;;;6275681;22;20309;-92
2023/02/23 16:10:56;;;;;;;;;;;;;;;;;;6250228;22;19915;-93
2023/02/23 16:13:22;;;;;;;;;;;;;;;;;;6250340;22;19930;-92
2023/02/23 16:15:48;;;;;;;;;;;;;;;;;;6276293;22;19915;-94
2023/02/23 16:18:15;;;;;;;;;;;;;;;;;;6275809;22;20358;-92
2023/02/23 16:20:41;;;;;;;;;;;;;;;;;;6275889;22;19946;-92
2023/02/23 16:23:08;;;;;;;;;;;;;;;;;;6250572;22;19915;-91
2023/02/23 16:25:34;;;;;;;;;;;;;;;;;;6250003;22;19915;-92
2023/02/23 16:28:00;;;;;;;;;;;;;;;;;;6273713;22;19915;-93
2023/02/23 16:30:28;;;;;;;;;;;;;;;;;;6250699;22;20214;-93
2023/02/23 16:32:54;;;;;;;;;;;;;;;;;;6250400;22;19919;-90
2023/02/23 16:35:20;;;;;;;;;;;;;;;;;;6256840;22;19921;-92
2023/02/23 16:37:46;;;;;;;;;;;;;;;;;;6251336;22;19918;-94
2023/02/23 16:40:12;;;;;;;;;;;;;;;;;;6251746;22;19919;-92
2023/02/23 16:42:38;;;;;;;;;;;;;;;;;;6250096;22;20093;-91
2023/02/23 16:45:04;;;;;;;;;;;;;;;;;;6275830;22;19937;-92
2023/02/23 16:47:30;;;;;;;;;;;;;;;;;;6249879;22;19942;-92
2023/02/23 16:49:56;;;;;;;;;;;;;;;;;;6249748;22;19915;-93
2023/02/23 16:52:22;;;;;;;;;;;;;;;;;;6275673;22;19930;-92
2023/02/23 16:54:50;;;;;;;;;;;;;;;;;;6250245;22;20275;-93
2023/02/23 16:57:16;;;;;;;;;;;;;;;;;;6250068;22;19990;-92
2023/02/23 16:59:42;;;;;;;;;;;;;;;;;;6250038;22;19926;-93
2023/02/23 17:02:08;;;;;;;;;;;;;;;;;;6249701;22;19915;-92
2023/02/23 17:04:34;;;;;;;;;;;;;;;;;;6275596;22;19915;-92
2023/02/23 17:07:00;;;;;;;;;;;;;;;;;;6249273;22;19969;-93
2023/02/23 17:09:26;;;;;;;;;;;;;;;;;;6275303;22;19922;-91
2023/02/23 17:11:55;;;;;;;;;;;;;;;;;;6251804;22;19924;-92
2023/02/23 17:14:21;;;;;;;;;;;;;;;;;;6258037;22;19915;-94
2023/02/23 17:16:47;;;;;;;;;;;;;;;;;;6257818;22;19911;-92
2023/02/23 17:19:14;;;;;;;;;;;;;;;;;;6281889;22;20339;-92
2023/02/23 17:21:40;;;;;;;;;;;;;;;;;;6253925;22;19955;-91
2023/02/23 17:24:06;;;;;;;;;;;;;;;;;;6257299;22;19922;-93
2023/02/23 17:26:33;;;;;;;;;;;;;;;;;;6260908;22;19919;-93
2023/02/23 17:28:59;;;;;;;;;;;;;;;;;;6263690;22;19920;-91
2023/02/23 17:31:24;;;;;;;;;;;;;;;;;;6281063;22;19923;-90
2023/02/23 17:33:51;;;;;;;;;;;;;;;;;;6255760;22;19955;-91
2023/02/23 17:36:16;;;;;;;;;;;;;;;;;;6286449;22;19922;-92
2023/02/23 17:38:45;;;;;;;;;;;;;;;;;;6290119;22;19919;-92
2023/02/23 17:41:11;;;;;;;;;;;;;;;;;;6258307;22;19916;-91
2023/02/23 17:43:37;;;;;;;;;;;;;;;;;;6280770;22;19939;-91
2023/02/23 17:46:03;;;;;;;;;;;;;;;;;;6252408;22;19915;-89
2023/02/23 17:48:33;;;;;;;;;;;;;;;;;;6250831;22;20252;-89
2023/02/23 17:50:59;;;;;;;;;;;;;;;;;;6250642;22;20020;-88
2023/02/23 17:53:27;;;;;;;;;;;;;;;;;;6279312;22;19919;-89
2023/02/23 17:55:53;;;;;;;;;;;;;;;;;;6252723;22;20388;-90
2023/02/23 17:58:19;;;;;;;;;;;;;;;;;;6254139;22;19915;-90
2023/02/23 18:00:45;;;;;;;;;;;;;;;;;;6256090;22;19922;-92
2023/02/23 18:03:11;;;;;;;;;;;;;;;;;;6257499;22;19915;-91
2023/02/23 18:05:37;;;;;;;;;;;;;;;;;;6253295;22;19965;-90
2023/02/23 18:08:04;;;;;;;;;;;;;;;;;;6278284;22;19923;-93
2023/02/23 18:10:30;;;;;;;;;;;;;;;;;;6278311;22;19923;-90
2023/02/23 18:12:56;;;;;;;;;;;;;;;;;;6277911;22;19919;-90
2023/02/23 18:15:22;;;;;;;;;;;;;;;;;;6276406;22;19922;-91
2023/02/23 18:17:48;;;;;;;;;;;;;;;;;;6276007;22;19937;-91
2023/02/23 18:20:15;;;;;;;;;;;;;;;;;;6276583;22;19915;-90
2023/02/23 18:22:42;;;;;;;;;;;;;;;;;;6250293;22;19950;-91
2023/02/23 18:25:10;;;;;;;;;;;;;;;;;;6250876;22;19910;-96
2023/02/23 18:27:36;;;;;;;;;;;;;;;;;;6279016;22;19919;-94
2023/02/23 18:30:02;;;;;;;;;;;;;;;;;;6276640;22;19927;-91
2023/02/23 18:32:28;;;;;;;;;;;;;;;;;;6250248;22;20326;-93
2023/02/23 18:34:54;;;;;;;;;;;;;;;;;;6277438;22;19915;-93
2023/02/23 18:37:23;;;;;;;;;;;;;;;;;;6251272;22;20324;-94
2023/02/23 18:39:50;;;;;;;;;;;;;;;;;;6277040;22;19915;-92
2023/02/23 18:42:16;;;;;;;;;;;;;;;;;;6251423;22;19922;-94
2023/02/23 18:44:42;;;;;;;;;;;;;;;;;;6278287;22;19942;-93
2023/02/23 18:47:08;;;;;;;;;;;;;;;;;;6278503;22;20190;-94
2023/02/23 18:49:35;;;;;;;;;;;;;;;;;;6276971;22;19974;-93
2023/02/23 18:52:04;;;;;;;;;;;;;;;;;;6277070;22;19919;-93
2023/02/23 18:54:30;;;;;;;;;;;;;;;;;;6278469;22;20002;-93
2023/02/23 18:56:56;;;;;;;;;;;;;;;;;;6251218;22;19916;-94
2023/02/23 18:59:22;;;;;;;;;;;;;;;;;;6251107;22;19915;-94
2023/02/23 19:01:48;;;;;;;;;;;;;;;;;;6251512;22;20244;-92
2023/02/23 19:04:13;;;;;;;;;;;;;;;;;;6250901;22;19947;-93
2023/02/23 19:07:08;;;;;;;;;;;;;;;;;;6251285;22;19915;-96
2023/02/23 19:09:26;;;;;;;;;;;;;;;;;;6274951;22;20188;-96
2023/02/23 19:11:57;;;;;;;;;;;;;;;;;;6272151;22;19987;-93
2023/02/23 19:14:23;;;;;;;;;;;;;;;;;;6246456;23;19922;-94
2023/02/23 19:16:49;;;;;;;;;;;;;;;;;;6221198;23;19919;-93
2023/02/23 19:19:17;;;;;;;;;;;;;;;;;;6245545;22;19923;-92
2023/02/23 19:21:44;;;;;;;;;;;;;;;;;;6219769;23;19954;-94
2023/02/23 19:24:09;;;;;;;;;;;;;;;;;;6220852;23;19981;-95
2023/02/23 19:26:36;;;;;;;;;;;;;;;;;;6220635;23;19961;-93
2023/02/23 19:29:02;;;;;;;;;;;;;;;;;;6245994;22;19916;-95
2023/02/23 19:31:28;;;;;;;;;;;;;;;;;;6246256;23;19991;-94
2023/02/23 19:33:54;;;;;;;;;;;;;;;;;;6220674;23;19916;-93
2023/02/23 19:36:20;;;;;;;;;;;;;;;;;;6246363;23;20233;-94
2023/02/23 19:38:47;;;;;;;;;;;;;;;;;;6245948;22;19930;-92
2023/02/23 19:41:13;;;;;;;;;;;;;;;;;;6245828;23;19920;-95
2023/02/23 19:43:39;;;;;;;;;;;;;;;;;;6247051;23;19965;-93
2023/02/23 19:46:05;;;;;;;;;;;;;;;;;;6246182;23;19916;-92
2023/02/23 19:48:31;;;;;;;;;;;;;;;;;;6220049;23;19916;-93
2023/02/23 19:50:57;;;;;;;;;;;;;;;;;;6220540;23;19998;-95
2023/02/23 19:53:23;;;;;;;;;;;;;;;;;;6220340;23;19946;-95
2023/02/23 19:55:49;;;;;;;;;;;;;;;;;;6220857;23;19920;-95
2023/02/23 19:58:15;;;;;;;;;;;;;;;;;;6219823;23;19961;-96
2023/02/23 20:00:43;;;;;;;;;;;;;;;;;;6245488;23;19915;-95
2023/02/23 20:03:09;;;;;;;;;;;;;;;;;;6245871;23;19966;-96
2023/02/23 20:05:38;;;;;;;;;;;;;;;;;;6220393;23;19919;-94
2023/02/23 20:08:11;;;;;;;;;;;;;;;;;;6245478;22;19919;-96
2023/02/23 20:37:23;;;;;;;;;;;;;;;;;;6280180;22;19935;-92
2023/02/23 20:39:49;;;;;;;;;;;;;;;;;;6279022;22;19945;-93
2023/02/23 20:42:15;;;;;;;;;;;;;;;;;;6280740;22;19921;-92
2023/02/23 20:44:41;;;;;;;;;;;;;;;;;;6254112;22;19990;-93
2023/02/23 20:47:08;;;;;;;;;;;;;;;;;;6256820;22;19926;-94
2023/02/23 20:49:34;;;;;;;;;;;;;;;;;;6256750;22;20233;-93
2023/02/23 20:52:02;;;;;;;;;;;;;;;;;;6309958;22;20049;-93
2023/02/23 20:54:35;;;;;;;;;;;;;;;;;;6257332;22;20248;-96
2023/02/23 20:57:12;;;;;;;;;;;;;;;;;;6287542;22;19922;-96
2023/02/23 20:59:39;;;;;;;;;;;;;;;;;;6257482;22;19951;-95
2023/02/23 21:02:09;;;;;;;;;;;;;;;;;;6259318;22;20262;-96
2023/02/23 21:04:37;;;;;;;;;;;;;;;;;;6256608;22;19953;-95
2023/02/23 21:07:04;;;;;;;;;;;;;;;;;;6257193;22;19915;-93
2023/02/23 21:09:31;;;;;;;;;;;;;;;;;;6282636;22;19921;-93
2023/02/23 21:12:40;;;;;;;;;;;;;;;;;;6259034;22;19923;-94
2023/02/23 21:14:49;;;;;;;;;;;;;;;;;;6268245;22;19919;-93
2023/02/23 21:17:15;;;;;;;;;;;;;;;;;;6256982;22;20237;-93
2023/02/23 21:22:48;;;;;;;;;;;;;;;;;;6263842;22;20109;-91
2023/02/23 21:25:19;;;;;;;;;;;;;;;;;;6285548;22;19938;-96
2023/02/23 21:33:21;;;;;;;;;;;;;;;;;;6278534;22;19926;-94
2023/02/23 21:35:47;;;;;;;;;;;;;;;;;;6281138;22;19998;-92
2023/02/23 21:41:32;;;;;;;;;;;;;;;;;;6164249;23;19954;-95
2023/02/23 21:47:10;;;;;;;;;;;;;;;;;;6186928;23;19967;-94
2023/02/23 22:22:25;;;;;;;;;;;;;;;;;;6130081;23;19916;-95
2023/02/23 22:24:51;;;;;;;;;;;;;;;;;;6105520;23;20339;-92
2023/02/23 22:35:41;;;;;;;;;;;;;;;;;;6102187;23;19984;-95
2023/02/23 22:41:14;;;;;;;;;;;;;;;;;;6096474;23;19932;-93
2023/02/23 22:43:45;;;;;;;;;;;;;;;;;;6181205;23;19916;-94
2023/02/23 22:46:20;;;;;;;;;;;;;;;;;;6246854;23;19915;-95
2023/02/23 22:48:46;;;;;;;;;;;;;;;;;;6247072;23;19926;-94
2023/02/23 22:51:12;;;;;;;;;;;;;;;;;;6221296;23;19916;-93
2023/02/23 22:53:38;;;;;;;;;;;;;;;;;;6247033;23;20345;-94
2023/02/23 22:56:04;;;;;;;;;;;;;;;;;;6246526;23;19947;-94
2023/02/23 22:58:31;;;;;;;;;;;;;;;;;;6246602;23;20317;-93
2023/02/23 23:01:08;;;;;;;;;;;;;;;;;;6246863;23;20013;-95
2023/02/23 23:03:34;;;;;;;;;;;;;;;;;;6221154;23;20100;-93
2023/02/23 23:06:03;;;;;;;;;;;;;;;;;;6246936;23;19915;-94
2023/02/23 23:08:29;;;;;;;;;;;;;;;;;;6246358;23;19923;-94
2023/02/23 23:10:58;;;;;;;;;;;;;;;;;;6246405;23;20351;-95
2023/02/23 23:13:34;;;;;;;;;;;;;;;;;;;;;
2023/02/23 23:18:50;;;;;;;;;;;;;;;;;;6231685;22;20288;-95
2023/02/23 23:21:20;;;;;;;;;;;;;;;;;;6248326;22;19919;-95
2023/02/23 23:23:46;;;;;;;;;;;;;;;;;;6220823;23;19916;-94
2023/02/23 23:26:20;;;;;;;;;;;;;;;;;;6246317;23;19915;-94
2023/02/23 23:28:48;;;;;;;;;;;;;;;;;;6246170;23;20352;-95
2023/02/23 23:31:17;;;;;;;;;;;;;;;;;;6246028;23;19916;-93
2023/02/23 23:36:32;;;;;;;;;;;;;;;;;;6229939;23;19915;-92
2023/02/23 23:39:06;;;;;;;;;;;;;;;;;;6246191;23;19923;-95
2023/02/23 23:41:34;;;;;;;;;;;;;;;;;;6246786;23;19915;-94
2023/02/23 23:44:03;;;;;;;;;;;;;;;;;;6246532;23;19951;-95
2023/02/23 23:46:32;;;;;;;;;;;;;;;;;;6221052;23;19916;-94
2023/02/23 23:49:01;;;;;;;;;;;;;;;;;;6246316;23;19916;-94
2023/02/23 23:51:35;;;;;;;;;;;;;;;;;;6220670;23;19922;-93
2023/02/23 23:54:12;;;;;;;;;;;;;;;;;;;;;
2023/02/23 23:56:38;;;;;;;;;;;;;;;;;;6245149;23;19966;-96
2023/02/23 23:59:06;;;;;;;;;;;;;;;;;;6247556;23;20280;-94
